createdAt,value
2023-04-12T00:00:10.750Z,7.83
2023-04-12T00:02:40.594Z,7.53
2023-04-12T00:05:09.835Z,8.80
2023-04-12T00:07:39.580Z,7.77
2023-04-12T00:10:09.627Z,7.00
2023-04-12T00:12:37.854Z,7.30
2023-04-12T00:15:10.870Z,8.03
2023-04-12T00:17:38.934Z,8.50
2023-04-12T00:20:12.282Z,7.87
2023-04-12T00:22:42.710Z,8.03
2023-04-12T00:25:12.094Z,8.80
2023-04-12T00:27:40.917Z,8.43
2023-04-12T00:30:09.806Z,8.77
2023-04-12T00:32:37.800Z,9.53
2023-04-12T00:35:07.055Z,7.80
2023-04-12T00:37:36.409Z,7.53
2023-04-12T00:40:08.417Z,8.43
2023-04-12T00:42:37.657Z,7.90
2023-04-12T00:45:08.656Z,8.80
2023-04-12T00:47:37.787Z,9.03
2023-04-12T00:50:07.263Z,7.47
2023-04-12T00:52:36.005Z,8.40
2023-04-12T00:55:09.903Z,7.63
2023-04-12T00:57:40.346Z,9.20
2023-04-12T01:00:13.974Z,9.17
2023-04-12T01:02:47.788Z,8.83
2023-04-12T01:05:22.371Z,8.23
2023-04-12T01:08:01.257Z,8.17
2023-04-12T01:10:39.590Z,7.63
2023-04-12T01:13:19.240Z,9.30
2023-04-12T01:15:55.185Z,8.83
2023-04-12T01:18:28.618Z,8.90
2023-04-12T01:21:01.706Z,8.47
2023-04-12T01:23:49.650Z,9.10
2023-04-12T01:26:34.431Z,7.37
2023-04-12T01:29:10.270Z,7.73
2023-04-12T01:31:41.055Z,8.30
2023-04-12T01:34:12.987Z,9.90
2023-04-12T01:36:43.945Z,8.40
2023-04-12T01:39:12.640Z,9.27
2023-04-12T01:41:45.451Z,9.73
2023-04-12T01:44:16.646Z,9.20
2023-04-12T01:46:44.984Z,8.37
2023-04-12T01:49:14.038Z,8.27
2023-04-12T01:51:51.163Z,8.80
2023-04-12T01:54:26.078Z,9.63
2023-04-12T01:56:59.096Z,9.00
2023-04-12T01:59:33.838Z,9.73
2023-04-12T02:02:03.480Z,9.73
2023-04-12T02:04:32.169Z,10.27
2023-04-12T02:07:00.394Z,9.63
2023-04-12T02:09:28.579Z,9.83
2023-04-12T02:11:58.260Z,9.53
2023-04-12T02:14:27.355Z,10.17
2023-04-12T02:16:58.583Z,9.40
2023-04-12T02:19:26.686Z,10.10
2023-04-12T02:21:54.775Z,11.17
2023-04-12T02:24:22.905Z,10.13
2023-04-12T02:26:51.276Z,7.33
2023-04-12T02:29:19.491Z,8.93
2023-04-12T02:31:48.614Z,10.33
2023-04-12T02:34:19.073Z,8.60
2023-04-12T02:36:48.657Z,9.07
2023-04-12T02:39:18.894Z,8.90
2023-04-12T02:41:47.221Z,9.97
2023-04-12T02:44:15.309Z,9.50
2023-04-12T02:46:43.332Z,9.60
2023-04-12T02:49:13.076Z,10.30
2023-04-12T02:51:43.080Z,9.50
2023-04-12T02:54:11.329Z,10.10
2023-04-12T02:56:39.704Z,9.70
2023-04-12T02:59:08.079Z,9.93
2023-04-12T03:01:36.398Z,10.53
2023-04-12T03:04:04.630Z,9.43
2023-04-12T03:06:33.101Z,9.27
2023-04-12T03:09:03.203Z,10.77
2023-04-12T03:11:31.554Z,10.33
2023-04-12T03:13:59.657Z,10.57
2023-04-12T03:16:30.364Z,9.93
2023-04-12T03:18:59.821Z,10.97
2023-04-12T03:21:28.396Z,9.77
2023-04-12T03:23:57.081Z,10.07
2023-04-12T03:26:28.143Z,11.23
2023-04-12T03:28:57.910Z,11.83
2023-04-12T03:31:27.319Z,11.10
2023-04-12T03:33:56.018Z,11.83
2023-04-12T03:36:24.874Z,11.90
2023-04-12T03:38:52.744Z,13.33
2023-04-12T03:41:25.063Z,11.67
2023-04-12T03:43:54.804Z,12.60
2023-04-12T03:46:23.355Z,10.27
2023-04-12T03:48:52.286Z,12.27
2023-04-12T03:51:22.362Z,11.93
2023-04-12T03:53:50.707Z,13.80
2023-04-12T03:56:21.116Z,11.07
2023-04-12T03:58:49.259Z,12.73
2023-04-12T04:01:18.962Z,14.07
2023-04-12T04:03:48.255Z,11.57
2023-04-12T04:06:17.561Z,10.60
2023-04-12T04:08:47.102Z,7.63
2023-04-12T04:11:15.217Z,13.37
2023-04-12T04:13:43.572Z,12.97
2023-04-12T04:16:11.948Z,12.67
2023-04-12T04:18:42.677Z,11.97
2023-04-12T04:21:10.735Z,11.50
2023-04-12T04:23:39.934Z,13.37
2023-04-12T04:26:11.064Z,11.10
2023-04-12T04:28:39.742Z,12.53
2023-04-12T04:31:10.728Z,11.53
2023-04-12T04:33:39.095Z,11.73
2023-04-12T04:36:13.370Z,12.77
2023-04-12T04:38:44.329Z,11.57
2023-04-12T04:41:12.441Z,11.77
2023-04-12T04:43:42.899Z,13.27
2023-04-12T04:46:11.069Z,13.03
2023-04-12T04:48:39.085Z,10.63
2023-04-12T04:51:09.138Z,12.20
2023-04-12T04:53:38.747Z,11.93
2023-04-12T04:56:07.479Z,12.70
2023-04-12T04:58:36.270Z,11.93
2023-04-12T05:01:05.400Z,14.20
2023-04-12T05:03:34.346Z,11.13
2023-04-12T05:06:03.599Z,11.60
2023-04-12T05:08:33.000Z,11.87
2023-04-12T05:11:02.244Z,11.03
2023-04-12T05:13:30.708Z,11.03
2023-04-12T05:15:58.638Z,11.73
2023-04-12T05:18:26.786Z,10.67
2023-04-12T05:20:54.805Z,10.17
2023-04-12T05:23:23.465Z,10.00
2023-04-12T05:25:52.732Z,9.27
2023-04-12T05:28:20.725Z,8.97
2023-04-12T05:30:48.685Z,8.60
2023-04-12T05:33:16.885Z,8.10
2023-04-12T05:35:45.627Z,7.30
2023-04-12T05:38:13.662Z,8.43
2023-04-12T05:40:42.215Z,7.30
2023-04-12T05:43:13.105Z,7.40
2023-04-12T05:45:41.442Z,6.70
2023-04-12T05:48:09.734Z,7.20
2023-04-12T05:50:37.698Z,7.47
2023-04-12T05:53:06.363Z,6.10
2023-04-12T05:55:37.289Z,5.60
2023-04-12T05:58:06.261Z,6.63
2023-04-12T06:00:36.911Z,5.57
2023-04-12T06:03:05.220Z,6.00
2023-04-12T06:05:35.637Z,5.33
2023-04-12T06:08:05.537Z,4.60
2023-04-12T06:10:33.642Z,6.03
2023-04-12T06:13:01.532Z,5.33
2023-04-12T06:15:32.126Z,4.57
2023-04-12T06:18:02.684Z,5.50
2023-04-12T06:20:30.682Z,5.33
2023-04-12T06:22:59.207Z,4.60
2023-04-12T06:25:27.229Z,4.40
2023-04-12T06:27:55.421Z,5.27
2023-04-12T06:30:23.408Z,4.70
2023-04-12T06:32:51.545Z,5.40
2023-04-12T06:35:21.731Z,5.20
2023-04-12T06:37:49.681Z,5.87
2023-04-12T06:40:17.853Z,4.13
2023-04-12T06:42:45.783Z,3.33
2023-04-12T06:45:14.914Z,4.00
2023-04-12T06:47:43.097Z,4.03
2023-04-12T06:50:11.867Z,4.70
2023-04-12T06:52:41.785Z,4.17
2023-04-12T06:55:10.679Z,4.33
2023-04-12T06:57:42.934Z,4.60
2023-04-12T07:00:12.600Z,4.97
2023-04-12T07:02:40.888Z,3.53
2023-04-12T07:05:09.688Z,3.50
2023-04-12T07:07:39.045Z,4.23
2023-04-12T07:10:10.333Z,3.90
2023-04-12T07:12:38.291Z,4.10
2023-04-12T07:15:07.109Z,2.73
2023-04-12T07:17:35.661Z,3.47
2023-04-12T07:20:03.674Z,3.57
2023-04-12T07:22:33.923Z,3.70
2023-04-12T07:25:02.110Z,3.87
2023-04-12T07:27:31.413Z,3.87
2023-04-12T07:29:59.362Z,3.53
2023-04-12T07:32:28.584Z,3.60
2023-04-12T07:34:57.027Z,4.00
2023-04-12T07:37:25.027Z,4.33
2023-04-12T07:39:53.094Z,3.77
2023-04-12T07:42:21.101Z,2.90
2023-04-12T07:44:50.783Z,3.77
2023-04-12T07:47:19.120Z,3.37
2023-04-12T07:49:47.116Z,3.60
2023-04-12T07:52:15.155Z,3.60
2023-04-12T07:54:43.272Z,4.00
2023-04-12T07:57:11.347Z,4.10
2023-04-12T07:59:39.543Z,4.23
2023-04-12T08:02:09.476Z,4.07
2023-04-12T08:04:38.294Z,3.50
2023-04-12T08:07:06.375Z,3.20
2023-04-12T08:09:34.380Z,2.10
2023-04-12T08:12:03.633Z,2.57
2023-04-12T08:14:31.579Z,2.07
2023-04-12T08:16:59.570Z,2.13
2023-04-12T08:19:29.119Z,3.20
2023-04-12T08:21:58.620Z,2.17
2023-04-12T08:24:26.928Z,2.37
2023-04-12T08:26:56.069Z,2.27
2023-04-12T08:29:24.014Z,2.30
2023-04-12T08:31:52.868Z,1.40
2023-04-12T08:34:22.542Z,2.30
2023-04-12T08:36:52.410Z,2.30
2023-04-12T08:39:21.708Z,2.97
2023-04-12T08:41:50.685Z,2.30
2023-04-12T08:44:19.676Z,2.13
2023-04-12T08:46:48.702Z,1.80
2023-04-12T08:49:18.887Z,1.70
2023-04-12T08:51:47.235Z,1.63
2023-04-12T08:54:16.697Z,1.47
2023-04-12T08:56:46.061Z,1.87
2023-04-12T08:59:15.266Z,1.23
2023-04-12T09:01:43.624Z,1.47
2023-04-12T09:04:11.831Z,1.77
2023-04-12T09:06:41.685Z,1.63
2023-04-12T09:09:10.182Z,1.60
2023-04-12T09:11:40.296Z,1.87
2023-04-12T09:14:22.220Z,2.30
2023-04-12T09:16:50.968Z,1.40
2023-04-12T09:19:32.856Z,1.43
2023-04-12T09:22:01.808Z,1.57
2023-04-12T09:24:30.535Z,1.23
2023-04-12T09:27:06.999Z,1.40
2023-04-12T09:29:35.314Z,1.90
2023-04-12T09:32:04.934Z,1.60
2023-04-12T09:34:35.199Z,1.00
2023-04-12T09:37:14.275Z,1.27
2023-04-12T09:39:42.383Z,1.27
2023-04-12T09:42:25.576Z,1.60
2023-04-12T09:45:03.015Z,1.77
2023-04-12T09:47:42.063Z,1.67
2023-04-12T09:50:11.100Z,1.30
2023-04-12T09:52:40.419Z,1.63
2023-04-12T09:55:11.875Z,1.30
2023-04-12T09:57:43.266Z,1.70
2023-04-12T10:00:17.562Z,2.00
2023-04-12T10:02:47.982Z,1.57
2023-04-12T10:05:20.189Z,1.93
2023-04-12T10:07:51.233Z,2.10
2023-04-12T10:10:20.942Z,1.27
2023-04-12T10:12:51.286Z,1.73
2023-04-12T10:15:21.975Z,1.13
2023-04-12T10:17:53.946Z,0.90
2023-04-12T10:20:28.237Z,1.50
2023-04-12T10:22:59.631Z,2.43
2023-04-12T10:25:31.926Z,1.90
2023-04-12T10:28:15.381Z,0.97
2023-04-12T10:30:43.421Z,1.30
2023-04-12T10:33:17.065Z,0.70
2023-04-12T10:36:00.961Z,3.27
2023-04-12T10:38:35.780Z,0.87
2023-04-12T10:41:17.352Z,1.10
2023-04-12T10:43:47.548Z,1.00
2023-04-12T10:46:53.789Z,1.10
2023-04-12T10:49:21.931Z,1.30
2023-04-12T10:52:19.036Z,0.70
2023-04-12T10:54:51.034Z,1.23
2023-04-12T10:57:47.954Z,1.30
2023-04-12T11:00:18.665Z,1.23
2023-04-12T11:03:07.656Z,1.10
2023-04-12T11:05:58.478Z,1.10
2023-04-12T11:08:27.793Z,1.30
2023-04-12T11:11:04.680Z,0.87
2023-04-12T11:13:36.966Z,1.37
2023-04-12T11:16:07.895Z,1.33
2023-04-12T11:18:37.762Z,0.70
2023-04-12T11:21:06.843Z,1.10
2023-04-12T11:23:36.346Z,0.97
2023-04-12T11:26:05.158Z,0.93
2023-04-12T11:28:35.208Z,1.07
2023-04-12T11:31:04.325Z,1.00
2023-04-12T11:33:35.181Z,0.90
2023-04-12T11:36:06.470Z,1.40
2023-04-12T11:38:36.840Z,1.40
2023-04-12T11:41:06.974Z,1.10
2023-04-12T11:43:38.961Z,0.97
2023-04-12T11:46:07.263Z,0.83
2023-04-12T11:48:38.966Z,0.77
2023-04-12T11:51:20.787Z,1.00
2023-04-12T11:53:54.126Z,1.37
2023-04-12T11:56:22.109Z,1.63
2023-04-12T11:58:50.126Z,0.73
2023-04-12T12:01:20.796Z,1.00
2023-04-12T12:03:52.275Z,0.90
2023-04-12T12:06:22.701Z,0.90
2023-04-12T12:08:51.999Z,0.87
2023-04-12T12:11:21.687Z,0.77
2023-04-12T12:13:51.315Z,0.73
2023-04-12T12:16:20.410Z,1.27
2023-04-12T12:18:52.602Z,1.00
2023-04-12T12:21:22.007Z,1.10
2023-04-12T12:23:50.884Z,1.00
2023-04-12T12:26:23.066Z,1.07
2023-04-12T12:28:52.842Z,1.00
2023-04-12T12:31:22.600Z,1.20
2023-04-12T12:33:57.046Z,0.80
2023-04-12T12:36:33.434Z,0.67
2023-04-12T12:39:10.982Z,1.20
2023-04-12T12:41:40.186Z,0.87
2023-04-12T12:44:08.962Z,1.23
2023-04-12T12:49:09.295Z,1.10
2023-04-12T12:51:37.410Z,1.10
2023-04-12T12:54:05.412Z,1.00
2023-04-12T12:56:33.368Z,1.10
2023-04-12T12:59:01.431Z,1.13
2023-04-12T13:01:31.102Z,1.00
2023-04-12T13:03:59.437Z,1.13
2023-04-12T13:06:29.739Z,0.80
2023-04-12T13:08:58.314Z,0.80
2023-04-12T13:11:26.536Z,1.57
2023-04-12T13:13:54.659Z,1.30
2023-04-12T13:16:24.732Z,0.87
2023-04-12T13:18:54.624Z,1.00
2023-04-12T13:21:22.846Z,1.20
2023-04-12T13:23:52.146Z,0.90
2023-04-12T13:26:20.186Z,1.20
2023-04-12T13:28:48.115Z,1.20
2023-04-12T13:31:16.496Z,0.93
2023-04-12T13:33:44.824Z,0.87
2023-04-12T13:36:12.998Z,2.20
2023-04-12T13:38:41.461Z,1.47
2023-04-12T13:41:11.201Z,0.93
2023-04-12T13:43:39.556Z,1.10
2023-04-12T13:46:07.839Z,1.30
2023-04-12T13:48:36.224Z,1.10
2023-04-12T13:51:04.477Z,1.00
2023-04-12T13:53:33.801Z,1.37
2023-04-12T13:56:02.252Z,1.00
2023-04-12T13:58:32.154Z,1.20
2023-04-12T14:01:01.107Z,1.30
2023-04-12T14:03:29.602Z,1.27
2023-04-12T14:05:57.619Z,1.13
2023-04-12T14:08:25.577Z,1.60
2023-04-12T14:10:54.705Z,1.07
2023-04-12T14:13:24.625Z,1.43
2023-04-12T14:15:54.899Z,1.03
2023-04-12T14:18:22.963Z,1.40
2023-04-12T14:20:55.088Z,1.00
2023-04-12T14:23:25.300Z,1.13
2023-04-12T14:25:53.824Z,1.00
2023-04-12T14:28:24.560Z,0.97
2023-04-12T14:30:54.553Z,0.60
2023-04-12T14:33:22.542Z,1.00
2023-04-12T14:35:50.569Z,0.70
2023-04-12T14:38:18.508Z,0.83
2023-04-12T14:40:46.635Z,1.03
2023-04-12T14:43:14.682Z,0.93
2023-04-12T14:45:42.566Z,1.00
2023-04-12T14:48:11.806Z,0.70
2023-04-12T14:50:41.005Z,0.80
2023-04-12T14:53:09.974Z,0.90
2023-04-12T14:55:37.931Z,0.83
2023-04-12T14:58:06.516Z,1.00
2023-04-12T15:00:35.331Z,0.70
2023-04-12T15:03:03.645Z,1.00
2023-04-12T15:05:33.164Z,1.13
2023-04-12T15:08:03.860Z,0.87
2023-04-12T15:10:32.179Z,1.10
2023-04-12T15:13:00.117Z,1.00
2023-04-12T15:15:28.589Z,0.90
2023-04-12T15:17:56.902Z,0.90
2023-04-12T15:20:24.932Z,0.97
2023-04-12T15:22:54.289Z,1.00
2023-04-12T15:25:22.978Z,0.80
2023-04-12T15:27:51.547Z,0.93
2023-04-12T15:30:19.497Z,0.70
2023-04-12T15:32:47.548Z,0.93
2023-04-12T15:35:26.584Z,1.00
2023-04-12T15:37:56.679Z,0.90
2023-04-12T15:40:24.635Z,0.80
2023-04-12T15:42:52.800Z,1.10
2023-04-12T15:45:21.566Z,1.40
2023-04-12T15:47:49.455Z,1.17
2023-04-12T15:50:17.841Z,1.40
2023-04-12T15:52:46.098Z,1.37
2023-04-12T15:55:17.178Z,1.27
2023-04-12T15:57:45.405Z,1.17
2023-04-12T16:00:23.108Z,0.90
2023-04-12T16:02:54.958Z,1.23
2023-04-12T16:05:23.389Z,0.97
2023-04-12T16:07:51.902Z,0.83
2023-04-12T16:10:22.735Z,1.33
2023-04-12T16:12:51.946Z,1.03
2023-04-12T16:15:21.180Z,1.10
2023-04-12T16:17:52.054Z,1.40
2023-04-12T16:20:21.797Z,1.10
2023-04-12T16:22:54.323Z,1.20
2023-04-12T16:25:25.231Z,1.10
2023-04-12T16:27:53.398Z,0.70
2023-04-12T16:30:23.039Z,1.10
2023-04-12T16:32:52.270Z,1.37
2023-04-12T16:35:20.401Z,1.30
2023-04-12T16:37:48.613Z,1.33
2023-04-12T16:40:17.298Z,1.10
2023-04-12T16:42:47.062Z,1.77
2023-04-12T16:45:15.622Z,1.70
2023-04-12T16:47:43.992Z,2.10
2023-04-12T16:50:13.562Z,1.20
2023-04-12T16:52:42.113Z,1.20
2023-04-12T16:55:11.451Z,2.03
2023-04-12T16:57:41.438Z,1.60
2023-04-12T17:00:20.636Z,1.40
2023-04-12T17:02:50.907Z,1.63
2023-04-12T17:05:20.157Z,1.87
2023-04-12T17:07:49.905Z,1.60
2023-04-12T17:10:18.801Z,1.40
2023-04-12T17:12:47.134Z,1.20
2023-04-12T17:15:18.175Z,1.07
2023-04-12T17:17:48.367Z,1.40
2023-04-12T17:20:16.847Z,1.10
2023-04-12T17:22:44.893Z,1.10
2023-04-12T17:25:13.453Z,1.67
2023-04-12T17:27:42.077Z,1.37
2023-04-12T17:30:13.239Z,1.60
2023-04-12T17:32:42.747Z,1.50
2023-04-12T17:35:13.163Z,1.60
2023-04-12T17:37:41.552Z,1.43
2023-04-12T17:40:11.846Z,2.10
2023-04-12T17:42:41.689Z,1.83
2023-04-12T17:45:12.921Z,3.17
2023-04-12T17:47:43.444Z,3.40
2023-04-12T17:50:12.661Z,2.30
2023-04-12T17:52:41.325Z,3.17
2023-04-12T17:55:10.877Z,3.67
2023-04-12T17:57:39.269Z,2.00
2023-04-12T18:00:11.943Z,3.00
2023-04-12T18:02:40.658Z,1.83
2023-04-12T18:05:11.726Z,2.40
2023-04-12T18:07:42.690Z,1.73
2023-04-12T18:10:13.005Z,2.30
2023-04-12T18:12:41.201Z,1.83
2023-04-12T18:15:11.189Z,2.43
2023-04-12T18:17:40.234Z,2.47
2023-04-12T18:20:12.272Z,1.43
2023-04-12T18:22:40.252Z,4.37
2023-04-12T18:25:11.709Z,2.97
2023-04-12T18:27:43.650Z,1.23
2023-04-12T18:30:15.266Z,1.87
2023-04-12T18:32:44.802Z,1.90
2023-04-12T18:35:15.411Z,1.70
2023-04-12T18:37:44.123Z,1.43
2023-04-12T18:40:13.933Z,1.57
2023-04-12T18:42:41.881Z,1.30
2023-04-12T18:45:11.448Z,1.70
2023-04-12T18:47:40.170Z,1.37
2023-04-12T18:50:10.154Z,1.50
2023-04-12T18:52:39.936Z,1.33
2023-04-12T18:55:09.201Z,1.40
2023-04-12T18:57:37.343Z,1.87
2023-04-12T19:00:10.712Z,1.50
2023-04-12T19:02:41.303Z,1.60
2023-04-12T19:05:11.250Z,1.47
2023-04-12T19:07:41.202Z,1.53
2023-04-12T19:10:10.386Z,1.70
2023-04-12T19:12:38.283Z,1.60
2023-04-12T19:15:08.544Z,1.07
2023-04-12T19:17:39.034Z,1.20
2023-04-12T19:20:09.024Z,1.50
2023-04-12T19:22:37.306Z,1.70
2023-04-12T19:25:16.942Z,1.40
2023-04-12T19:27:46.366Z,1.23
2023-04-12T19:30:17.199Z,1.30
2023-04-12T19:32:45.511Z,1.67
2023-04-12T19:35:14.163Z,1.37
2023-04-12T19:37:42.707Z,1.43
2023-04-12T19:40:13.903Z,1.40
2023-04-12T19:42:42.992Z,1.30
2023-04-12T19:45:11.387Z,1.60
2023-04-12T19:47:44.852Z,1.90
2023-04-12T19:50:15.127Z,1.73
2023-04-12T19:52:44.074Z,1.13
2023-04-12T19:55:14.622Z,1.30
2023-04-12T19:57:43.116Z,1.47
2023-04-12T20:00:19.700Z,1.40
2023-04-12T20:02:49.055Z,1.53
2023-04-12T20:05:17.380Z,1.60
2023-04-12T20:07:45.662Z,1.70
2023-04-12T20:10:15.626Z,1.53
2023-04-12T20:12:44.395Z,1.47
2023-04-12T20:15:13.229Z,1.53
2023-04-12T20:17:42.643Z,1.33
2023-04-12T20:20:12.924Z,1.40
2023-04-12T20:22:43.434Z,1.40
2023-04-12T20:25:13.136Z,1.40
2023-04-12T20:27:44.960Z,1.33
2023-04-12T20:30:17.731Z,1.60
2023-04-12T20:32:47.205Z,1.50
2023-04-12T20:35:15.835Z,1.40
2023-04-12T20:37:44.918Z,1.60
2023-04-12T20:40:13.991Z,1.50
2023-04-12T20:42:45.118Z,1.20
2023-04-12T20:45:14.239Z,1.40
2023-04-12T20:47:42.202Z,1.60
2023-04-12T20:50:12.578Z,1.50
2023-04-12T20:52:41.011Z,1.50
2023-04-12T20:55:11.126Z,1.20
2023-04-12T20:57:39.233Z,1.67
2023-04-12T21:00:17.364Z,1.77
2023-04-12T21:02:46.942Z,1.30
2023-04-12T21:05:16.929Z,1.40
2023-04-12T21:07:46.901Z,1.33
2023-04-12T21:10:15.413Z,1.20
2023-04-12T21:12:45.112Z,1.30
2023-04-12T21:15:18.075Z,1.70
2023-04-12T21:17:46.598Z,1.67
2023-04-12T21:20:16.165Z,1.60
2023-04-12T21:22:45.080Z,1.43
2023-04-12T21:25:16.776Z,1.70
2023-04-12T21:27:47.361Z,1.50
2023-04-12T21:30:16.741Z,1.40
2023-04-12T21:32:44.826Z,1.90
2023-04-12T21:35:13.330Z,1.67
2023-04-12T21:37:41.332Z,1.43
2023-04-12T21:40:12.917Z,1.73
2023-04-12T21:42:41.970Z,1.43
2023-04-12T21:45:10.699Z,2.00
2023-04-12T21:47:42.853Z,1.50
2023-04-12T21:50:11.885Z,1.63
2023-04-12T21:52:41.335Z,1.77
2023-04-12T21:55:09.447Z,1.63
2023-04-12T21:57:37.702Z,3.00
2023-04-12T22:00:08.832Z,3.73
2023-04-12T22:02:36.944Z,3.33
2023-04-12T22:05:07.736Z,4.50
2023-04-12T22:07:36.011Z,4.70
2023-04-12T22:10:05.111Z,4.97
2023-04-12T22:12:34.045Z,5.40
2023-04-12T22:15:01.975Z,4.67
2023-04-12T22:17:31.439Z,7.40
2023-04-12T22:19:59.851Z,6.80
2023-04-12T22:22:30.060Z,6.50
2023-04-12T22:24:58.414Z,6.07
2023-04-12T22:27:27.157Z,5.10
2023-04-12T22:29:55.084Z,5.80
2023-04-12T22:32:24.386Z,5.87
2023-04-12T22:35:05.236Z,6.53
2023-04-12T22:37:38.933Z,6.03
2023-04-12T22:40:11.898Z,6.13
2023-04-12T22:42:46.696Z,5.50
2023-04-12T22:45:15.781Z,6.07
2023-04-12T22:47:44.127Z,5.97
2023-04-12T22:50:12.974Z,5.67
2023-04-12T22:52:42.973Z,5.50
2023-04-12T22:55:14.062Z,5.40
2023-04-12T22:57:42.661Z,5.50
2023-04-12T23:00:14.948Z,4.80
2023-04-12T23:02:47.487Z,5.00
2023-04-12T23:05:16.597Z,4.70
2023-04-12T23:07:47.238Z,5.50
2023-04-12T23:10:15.199Z,4.50
2023-04-12T23:12:43.479Z,5.00
2023-04-12T23:15:12.826Z,4.87
2023-04-12T23:17:40.948Z,5.87
2023-04-12T23:20:13.533Z,5.37
2023-04-12T23:22:57.403Z,5.43
2023-04-12T23:25:39.624Z,5.37
2023-04-12T23:28:12.994Z,5.60
2023-04-12T23:30:44.602Z,5.60
2023-04-12T23:33:13.176Z,5.50
2023-04-12T23:35:42.118Z,4.93
2023-04-12T23:38:11.158Z,4.60
2023-04-12T23:40:40.539Z,5.30
2023-04-12T23:43:09.246Z,4.67
2023-04-12T23:45:38.509Z,3.40
2023-04-12T23:48:07.308Z,4.97
2023-04-12T23:50:35.357Z,4.77
2023-04-12T23:53:03.760Z,5.33
2023-04-12T23:55:32.213Z,3.80
2023-04-12T23:58:01.934Z,5.57
